Time;durP1;ratioP1;P1;durP2;ratioP2;P2;SDS_P1;SDS_P2;PMS_P1;PMS_P2;Temp;Humidity;BMP_temperature;BMP_pressure;BME280_temperature;BME280_humidity;BME280_pressure;Samples;Min_cycle;Max_cycle;Signal;HPM_P1;HPM_P2
2023/03/31 00:01:40;;;;;;;;;5.67;3.00;;;;;14.35;68.88;100078.16;5059166;28;45333;-70
2023/03/31 00:04:08;;;;;;;;;5.00;2.67;;;;;14.28;69.08;100048.69;5058568;28;46431;-70
2023/03/31 00:06:40;;;;;;;;;2.67;1.67;;;;;14.38;69.32;100078.63;5058530;28;45494;-71
2023/03/31 00:09:08;;;;;;;;;7.33;5.00;;;;;14.31;69.63;100088.41;5058726;28;45454;-69
2023/03/31 00:11:34;;;;;;;;;4.00;3.33;;;;;14.38;69.67;100094.66;5058453;28;45455;-71
2023/03/31 00:14:00;;;;;;;;;2.33;2.33;;;;;14.34;70.20;100093.38;5040106;28;46494;-70
2023/03/31 00:16:26;;;;;;;;;3.00;1.67;;;;;14.35;70.25;100083.53;5059126;28;45321;-71
2023/03/31 00:18:51;;;;;;;;;3.00;3.00;;;;;14.27;70.51;100061.22;5057579;28;45259;-70
2023/03/31 00:21:28;;;;;;;;;3.67;2.00;;;;;14.02;71.11;99955.59;5058770;28;45289;-70
2023/03/31 00:23:56;;;;;;;;;3.33;2.00;;;;;14.22;71.11;99995.97;5057494;28;45549;-71
2023/03/31 00:26:22;;;;;;;;;4.67;3.00;;;;;14.00;70.58;99947.75;5058223;28;45473;-71
2023/03/31 00:28:48;;;;;;;;;1.67;1.00;;;;;14.08;70.79;99943.31;5058623;28;45424;-70
2023/03/31 00:41:19;;;;;;;;;1.33;1.33;;;;;13.85;69.55;99914.03;5058121;28;45391;-70
2023/03/31 00:50:51;;;;;;;;;3.33;1.67;;;;;13.78;69.61;99918.44;5040568;28;46246;-70
2023/03/31 00:53:21;;;;;;;;;2.00;2.00;;;;;13.78;70.24;99905.09;5058089;28;45290;-70
2023/03/31 00:55:51;;;;;;;;;7.50;4.00;;;;;13.80;70.28;99903.06;5058416;28;45393;-71
2023/03/31 00:58:19;;;;;;;;;6.67;3.33;;;;;13.77;70.00;99900.75;5057768;28;47657;-70
2023/03/31 01:00:53;;;;;;;;;3.33;3.33;;;;;13.77;69.86;99890.09;5057450;28;45511;-70
2023/03/31 01:03:21;;;;;;;;;3.00;2.00;;;;;13.39;70.03;99815.41;5058013;28;45537;-70
2023/03/31 01:06:02;;;;;;;;;3.33;1.67;;;;;13.65;70.46;99866.53;5057865;28;45432;-71
2023/03/31 01:08:28;;;;;;;;;2.00;2.00;;;;;13.70;69.96;99872.13;5057678;28;46910;-72
2023/03/31 01:10:57;;;;;;;;;3.67;1.67;;;;;13.73;69.88;99857.56;5057297;28;45504;-71
2023/03/31 01:13:24;;;;;;;;;3.33;2.00;;;;;13.04;70.07;99763.59;5057794;28;45241;-71
2023/03/31 01:15:50;;;;;;;;;3.00;1.67;;;;;13.23;70.40;99786.25;5059015;28;45405;-70
2023/03/31 01:18:19;;;;;;;;;5.00;3.33;;;;;13.40;69.80;99838.41;5061368;28;46256;-70
2023/03/31 01:21:17;;;;;;;;;2.33;1.67;;;;;13.61;70.19;99862.53;5058051;28;45580;-70
2023/03/31 01:24:12;;;;;;;;;4.67;2.67;;;;;13.55;70.12;99833.91;5057576;28;45533;-70
2023/03/31 01:27:10;;;;;;;;;3.00;3.00;;;;;13.51;70.17;99835.31;5049233;28;45650;-70
2023/03/31 01:29:54;;;;;;;;;2.67;2.00;;;;;13.50;70.34;99828.31;5057466;28;46298;-70
2023/03/31 01:32:25;;;;;;;;;2.67;1.00;;;;;13.51;70.63;99840.66;5057545;28;45376;-70
2023/03/31 01:35:28;;;;;;;;;2.33;1.33;;;;;13.47;70.80;99831.34;5057749;28;45317;-70
2023/03/31 01:38:21;;;;;;;;;2.67;2.67;;;;;13.50;70.68;99828.31;5057687;28;45519;-69
2023/03/31 01:40:57;;;;;;;;;2.00;1.33;;;;;13.58;70.49;99830.88;5057094;28;46635;-73
2023/03/31 01:43:32;;;;;;;;;3.00;2.33;;;;;13.60;70.52;99817.31;5057295;28;45451;-71
2023/03/31 01:46:16;;;;;;;;;3.67;1.00;;;;;13.64;70.47;99824.81;5057302;28;45482;-71
2023/03/31 01:48:58;;;;;;;;;2.33;2.33;;;;;13.55;71.05;99809.88;5057507;28;45579;-70
2023/03/31 01:51:52;;;;;;;;;1.33;1.33;;;;;13.59;71.14;99795.13;5056835;28;46818;-70
2023/03/31 01:54:30;;;;;;;;;1.67;1.00;;;;;13.58;71.13;99795.31;5057116;28;45321;-70
2023/03/31 01:57:18;;;;;;;;;5.00;3.00;;;;;13.53;70.87;99771.84;5057363;28;45491;-70
2023/03/31 01:59:49;;;;;;;;;7.67;3.00;;;;;13.53;71.40;99776.38;5057156;28;45555;-70
2023/03/31 02:02:35;;;;;;;;;3.67;3.33;;;;;13.57;71.15;99769.63;5056818;28;46758;-70
2023/03/31 02:05:16;;;;;;;;;5.67;3.67;;;;;13.48;71.64;99776.94;5056780;28;45398;-71
2023/03/31 02:07:49;;;;;;;;;2.00;1.67;;;;;13.48;71.59;99771.59;5039236;28;45241;-71
2023/03/31 02:10:16;;;;;;;;;3.33;3.33;;;;;13.20;72.06;99709.19;5057090;28;45483;-71
2023/03/31 02:12:44;;;;;;;;;2.33;2.33;;;;;13.51;71.96;99759.72;5056822;28;46762;-71
2023/03/31 02:15:14;;;;;;;;;2.67;2.67;;;;;13.55;71.40;99760.97;5056908;28;45325;-70
2023/03/31 02:17:44;;;;;;;;;2.67;1.67;;;;;13.58;71.18;99756.09;5056986;28;45277;-74
2023/03/31 02:20:14;;;;;;;;;4.00;2.67;;;;;13.37;71.05;99722.16;5056761;28;45677;-70
2023/03/31 02:22:44;;;;;;;;;1.67;1.67;;;;;13.58;71.22;99745.41;5056834;28;47384;-70
2023/03/31 02:25:13;;;;;;;;;1.67;1.67;;;;;13.57;71.03;99746.44;5057237;28;45490;-70
2023/03/31 02:27:42;;;;;;;;;4.00;3.00;;;;;13.52;71.16;99724.81;5057292;28;45490;-70
2023/03/31 02:30:08;;;;;;;;;2.33;2.33;;;;;13.44;70.96;99706.25;5056944;28;45483;-70
2023/03/31 02:32:38;;;;;;;;;1.67;1.67;;;;;13.64;70.90;99723.31;5056524;28;45231;-71
2023/03/31 02:35:06;;;;;;;;;1.00;1.00;;;;;13.69;70.77;99730.75;5056131;28;45420;-70
2023/03/31 02:37:32;;;;;;;;;3.00;1.67;;;;;13.65;70.78;99716.94;5057877;28;45615;-70
2023/03/31 02:40:01;;;;;;;;;3.00;3.00;;;;;13.59;70.72;99711.50;5060282;28;45419;-69
2023/03/31 02:42:26;;;;;;;;;3.67;2.33;;;;;13.56;70.81;99699.38;5059808;28;46194;-70
2023/03/31 02:44:52;;;;;;;;;1.00;1.00;;;;;13.58;70.94;99707.19;5060081;28;45497;-71
2023/03/31 02:47:20;;;;;;;;;0.67;0.67;;;;;13.57;70.84;99678.84;5060120;28;45497;-70
2023/03/31 02:49:51;;;;;;;;;3.00;2.00;;;;;13.53;70.39;99673.06;5060276;28;45313;-70
2023/03/31 02:52:40;;;;;;;;;8.00;4.33;;;;;12.91;70.31;99544.63;5042173;28;46337;-71
2023/03/31 02:55:17;;;;;;;;;3.00;2.67;;;;;13.58;70.50;99659.13;5059548;28;45374;-71
2023/03/31 02:57:48;;;;;;;;;2.67;1.67;;;;;13.59;70.94;99645.59;5061387;28;45468;-71
2023/03/31 03:00:32;;;;;;;;;5.67;3.00;;;;;13.54;71.02;99642.66;5064623;28;45490;-70
2023/03/31 03:03:25;;;;;;;;;5.67;4.00;;;;;13.53;70.88;99654.34;5059967;28;46702;-71
2023/03/31 03:06:12;;;;;;;;;4.33;2.67;;;;;13.53;71.32;99648.19;5039398;28;45492;-71
2023/03/31 03:09:12;;;;;;;;;6.33;2.00;;;;;13.45;71.20;99642.97;5039768;28;45345;-71
2023/03/31 03:11:50;;;;;;;;;4.00;2.67;;;;;13.36;70.97;99628.91;5039736;28;45540;-70
2023/03/31 03:14:21;;;;;;;;;8.00;2.33;;;;;13.20;71.16;99603.28;5039164;28;46608;-70
2023/03/31 03:16:54;;;;;;;;;5.00;4.00;;;;;13.14;71.53;99587.16;5039297;28;45420;-70
2023/03/31 03:19:22;;;;;;;;;8.00;3.67;;;;;13.01;71.19;99578.03;5039432;28;45449;-70
2023/03/31 03:21:48;;;;;;;;;8.00;3.33;;;;;13.36;71.42;99644.94;5039611;28;45194;-71
2023/03/31 03:24:15;;;;;;;;;5.33;4.33;;;;;13.38;71.28;99650.91;5039255;28;46498;-70
2023/03/31 03:26:41;;;;;;;;;3.33;2.33;;;;;13.41;70.69;99626.50;5038246;28;45362;-70
2023/03/31 03:29:07;;;;;;;;;8.67;5.67;;;;;13.36;71.24;99629.75;5039306;28;45349;-70
2023/03/31 03:31:33;;;;;;;;;4.33;4.33;;;;;13.23;70.74;99610.09;5039632;28;45449;-71
2023/03/31 03:33:59;;;;;;;;;7.00;4.67;;;;;13.27;70.77;99616.72;5043818;28;47399;-70
2023/03/31 03:36:25;;;;;;;;;5.00;3.00;;;;;13.33;70.45;99626.63;5058872;28;45598;-71
2023/03/31 03:38:50;;;;;;;;;5.67;3.00;;;;;13.32;70.68;99619.63;5059257;28;45250;-71
2023/03/31 03:41:16;;;;;;;;;6.00;6.00;;;;;13.32;70.73;99612.44;5059102;28;48034;-70
2023/03/31 03:43:41;;;;;;;;;6.33;4.67;;;;;13.34;70.92;99613.09;5059057;28;47737;-70
2023/03/31 03:46:06;;;;;;;;;3.67;3.67;;;;;12.73;69.96;99502.38;5059288;28;45340;-70
2023/03/31 03:48:32;;;;;;;;;7.33;4.00;;;;;13.31;71.03;99604.63;5058996;28;45435;-71
2023/03/31 03:51:01;;;;;;;;;4.00;2.67;;;;;12.94;71.23;99539.75;5058730;28;45221;-70
2023/03/31 03:53:26;;;;;;;;;5.33;3.00;;;;;12.47;70.95;99466.41;5058879;28;46653;-71
2023/03/31 03:55:52;;;;;;;;;4.00;2.00;;;;;13.23;71.75;99584.25;5058871;28;45533;-71
2023/03/31 03:58:20;;;;;;;;;7.67;4.00;;;;;12.84;71.83;99533.91;5041121;28;45315;-70
2023/03/31 04:00:46;;;;;;;;;6.33;2.67;;;;;13.16;71.75;99569.13;5059125;28;45415;-71
2023/03/31 04:03:12;;;;;;;;;5.33;4.33;;;;;12.54;71.08;99461.13;5058395;28;45829;-71
2023/03/31 04:05:38;;;;;;;;;8.33;3.67;;;;;13.27;71.38;99576.66;5058601;28;45309;-70
2023/03/31 04:08:05;;;;;;;;;11.00;7.00;;;;;12.31;70.97;99410.66;5058908;28;45609;-70
2023/03/31 04:10:30;;;;;;;;;10.33;7.00;;;;;13.16;70.95;99532.59;5058721;28;45318;-70
2023/03/31 04:12:55;;;;;;;;;6.67;4.67;;;;;13.33;70.55;99555.38;5058798;28;46476;-70
2023/03/31 04:15:21;;;;;;;;;3.67;3.67;;;;;12.77;70.62;99448.47;5058529;28;45317;-71
2023/03/31 04:17:49;;;;;;;;;7.67;3.67;;;;;13.35;70.26;99550.66;5058096;28;54976;-70
2023/03/31 04:20:16;;;;;;;;;4.67;3.33;;;;;13.02;70.26;99488.13;5058593;28;45511;-70
2023/03/31 04:22:46;;;;;;;;;5.67;3.67;;;;;13.39;69.97;99559.94;5040301;28;47586;-70
2023/03/31 04:25:15;;;;;;;;;4.67;4.67;;;;;13.42;69.62;99560.59;5058261;28;45318;-70
2023/03/31 04:27:53;;;;;;;;;6.67;4.67;;;;;13.52;69.70;99577.94;5058331;28;45396;-70
2023/03/31 04:30:24;;;;;;;;;6.67;6.33;;;;;13.52;69.15;99572.59;5058429;28;45468;-71
2023/03/31 04:32:55;;;;;;;;;5.00;3.00;;;;;13.26;68.95;99509.13;5058053;28;45520;-71
2023/03/31 04:35:22;;;;;;;;;4.67;4.33;;;;;13.46;68.71;99543.19;5057636;28;45225;-71
2023/03/31 04:37:48;;;;;;;;;8.33;4.67;;;;;13.44;68.64;99546.03;5040711;28;45467;-69
2023/03/31 04:40:15;;;;;;;;;7.33;4.67;;;;;13.53;68.46;99554.72;5042330;28;45595;-70
2023/03/31 04:42:41;;;;;;;;;4.33;4.00;;;;;13.48;67.98;99552.66;5059316;28;46035;-71
2023/03/31 04:45:06;;;;;;;;;5.67;4.33;;;;;13.50;67.90;99555.94;5058136;28;45383;-70
2023/03/31 04:47:32;;;;;;;;;6.33;4.00;;;;;13.53;67.28;99542.22;5058261;28;45175;-70
2023/03/31 04:49:57;;;;;;;;;9.00;5.00;;;;;12.88;67.71;99457.00;5057484;28;57844;-71
2023/03/31 04:52:22;;;;;;;;;5.00;4.00;;;;;12.10;67.12;99320.03;5057625;28;46120;-71
2023/03/31 04:54:48;;;;;;;;;7.67;7.00;;;;;13.51;67.00;99556.78;5039952;28;45630;-70
2023/03/31 04:57:13;;;;;;;;;6.33;4.67;;;;;12.91;66.83;99444.09;5057956;28;45448;-71
2023/03/31 04:59:38;;;;;;;;;7.67;4.67;;;;;13.65;66.88;99558.53;5057475;28;45816;-71
2023/03/31 05:02:04;;;;;;;;;6.67;3.67;;;;;13.69;66.76;99544.59;5056049;28;45711;-71
2023/03/31 05:04:29;;;;;;;;;8.67;5.33;;;;;12.40;65.69;99344.72;5056575;28;54757;-73
2023/03/31 05:06:55;;;;;;;;;12.67;6.67;;;;;13.58;65.96;99533.63;5042933;28;45400;-70
2023/03/31 05:09:21;;;;;;;;;5.67;5.67;;;;;13.58;65.40;99544.28;5038463;28;45277;-72
2023/03/31 05:11:46;;;;;;;;;8.33;4.33;;;;;13.63;65.49;99553.41;5038082;28;46521;-71
2023/03/31 05:14:12;;;;;;;;;10.33;6.67;;;;;13.58;64.92;99547.78;5037899;28;45535;-72
2023/03/31 05:16:37;;;;;;;;;8.67;4.00;;;;;13.57;64.64;99556.00;5040193;28;45411;-71
2023/03/31 05:19:03;;;;;;;;;10.67;9.33;;;;;12.94;64.45;99438.38;5057979;28;45233;-70
2023/03/31 05:21:30;;;;;;;;;10.00;5.33;;;;;12.74;64.86;99378.69;5037485;28;46941;-70
2023/03/31 05:23:56;;;;;;;;;7.00;4.00;;;;;12.85;64.16;99418.19;5052666;28;45534;-71
2023/03/31 05:26:24;;;;;;;;;8.67;6.67;;;;;13.45;64.52;99533.53;5057526;28;45451;-71
2023/03/31 05:28:53;;;;;;;;;7.33;7.33;;;;;13.23;64.26;99506.00;5057237;28;45596;-71
2023/03/31 05:31:18;;;;;;;;;8.67;6.67;;;;;12.82;63.90;99428.44;5056173;28;46499;-71
2023/03/31 05:33:44;;;;;;;;;8.67;7.00;;;;;13.47;64.28;99545.66;5039218;28;45396;-70
2023/03/31 05:36:14;;;;;;;;;10.00;8.33;;;;;13.31;63.91;99506.69;5057145;28;45323;-71
2023/03/31 05:38:40;;;;;;;;;9.00;7.67;;;;;13.32;63.47;99516.34;5045417;28;45517;-71
2023/03/31 05:41:09;;;;;;;;;7.33;4.67;;;;;10.49;63.66;99035.47;5037326;28;46283;-71
2023/03/31 05:43:36;;;;;;;;;7.00;3.67;;;;;13.36;63.51;99500.78;5037449;28;45537;-70
2023/03/31 05:46:02;;;;;;;;;11.00;7.67;;;;;13.51;63.42;99520.22;5027952;28;45330;-73
2023/03/31 05:48:30;;;;;;;;;10.33;5.00;;;;;12.55;63.40;99358.81;5039415;28;45653;-71
2023/03/31 05:50:59;;;;;;;;;9.00;7.33;;;;;13.31;62.81;99476.50;5047934;28;45760;-70
2023/03/31 05:53:25;;;;;;;;;11.33;6.33;;;;;13.42;62.76;99494.69;5057077;28;45456;-70
2023/03/31 05:55:58;;;;;;;;;8.67;5.00;;;;;13.37;62.92;99489.06;5055746;28;45373;-71
2023/03/31 05:58:25;;;;;;;;;7.33;4.67;;;;;13.52;63.26;99521.88;5038855;28;45420;-73
2023/03/31 06:01:00;;;;;;;;;8.00;4.33;;;;;13.49;63.11;99524.94;5056436;28;45780;-71
2023/03/31 06:03:25;;;;;;;;;11.33;6.33;;;;;13.49;63.08;99526.78;5056741;28;45419;-71
2023/03/31 06:05:52;;;;;;;;;10.33;6.33;;;;;13.35;63.80;99510.63;5057203;28;45424;-70
2023/03/31 06:11:39;;;;;;;;;10.33;6.67;;;;;13.49;63.70;99548.97;5041131;28;45545;-71
2023/03/31 06:14:04;;;;;;;;;11.33;9.33;;;;;13.24;63.59;99491.66;5060123;28;45320;-71
2023/03/31 06:16:30;;;;;;;;;3.33;2.67;;;;;13.50;63.26;99507.06;5060311;28;45391;-70
2023/03/31 06:18:56;;;;;;;;;12.33;6.67;;;;;13.52;62.75;99507.69;5041895;28;45486;-70
2023/03/31 06:21:22;;;;;;;;;7.00;4.00;;;;;13.55;62.52;99510.78;5061598;28;45814;-70
2023/03/31 06:23:48;;;;;;;;;9.00;6.00;;;;;13.30;62.75;99474.84;5064211;28;45496;-77
2023/03/31 06:26:16;;;;;;;;;9.33;6.00;;;;;13.61;62.20;99534.03;5035872;28;45474;-72
2023/03/31 06:28:42;;;;;;;;;10.67;6.67;;;;;13.48;62.26;99509.94;5046553;28;45294;-71
2023/03/31 06:31:11;;;;;;;;;12.33;7.33;;;;;13.68;61.82;99537.63;5060117;28;46569;-72
2023/03/31 06:33:38;;;;;;;;;14.00;9.00;;;;;13.67;61.96;99495.91;5059965;28;45503;-71
2023/03/31 06:36:05;;;;;;;;;9.67;6.67;;;;;13.52;61.99;99500.50;5058918;28;45889;-73
2023/03/31 06:38:35;;;;;;;;;6.33;6.33;;;;;13.70;61.80;99516.88;5059031;28;45282;-71
2023/03/31 06:41:01;;;;;;;;;12.00;9.00;;;;;13.40;62.09;99445.97;5041438;28;48200;-72
2023/03/31 06:43:27;;;;;;;;;9.67;8.00;;;;;13.55;60.63;99446.72;5030496;28;45508;-72
2023/03/31 06:45:53;;;;;;;;;18.33;7.33;;;;;14.06;60.74;99539.94;5041933;28;45330;-75
2023/03/31 06:48:19;;;;;;;;;9.00;5.33;;;;;14.13;60.69;99514.06;5060634;28;45503;-71
2023/03/31 06:50:45;;;;;;;;;9.67;5.33;;;;;14.10;60.14;99513.66;5058375;28;46392;-71
2023/03/31 06:53:10;;;;;;;;;6.33;6.33;;;;;13.92;60.56;99482.09;5061281;28;45291;-72
2023/03/31 06:55:37;;;;;;;;;12.00;9.00;;;;;13.43;59.93;99405.56;5033280;28;45389;-71
2023/03/31 06:58:03;;;;;;;;;4.33;3.33;;;;;14.32;59.67;99531.25;5040086;28;45405;-71
2023/03/31 07:00:29;;;;;;;;;9.33;6.33;;;;;14.31;59.66;99535.78;5039950;28;45649;-71
2023/03/31 07:02:55;;;;;;;;;10.00;7.00;;;;;14.39;59.75;99544.66;5047556;28;45369;-72
2023/03/31 07:05:26;;;;;;;;;8.00;2.67;;;;;14.20;59.25;99488.19;5079811;28;45314;-71
2023/03/31 07:07:52;;;;;;;;;6.33;4.67;;;;;14.36;58.69;99503.09;5079059;28;45453;-70
2023/03/31 07:10:18;;;;;;;;;11.33;6.33;;;;;14.41;58.98;99526.56;5069290;28;46254;-71
2023/03/31 07:12:44;;;;;;;;;7.33;5.00;;;;;14.52;58.58;99512.66;5059451;28;45480;-71
2023/03/31 07:15:10;;;;;;;;;5.00;4.33;;;;;14.54;58.33;99505.25;5058318;28;45514;-71
2023/03/31 07:17:36;;;;;;;;;2.00;2.00;;;;;14.65;58.30;99526.09;5059833;28;45496;-73
2023/03/31 07:20:03;;;;;;;;;10.33;5.33;;;;;14.33;58.01;99460.72;5058959;28;45890;-72
2023/03/31 07:22:28;;;;;;;;;9.00;4.67;;;;;14.77;57.73;99516.44;5057776;28;45365;-72
2023/03/31 07:24:54;;;;;;;;;8.33;6.00;;;;;14.72;57.75;99520.75;5058195;28;45283;-71
2023/03/31 07:27:19;;;;;;;;;8.67;5.00;;;;;14.65;57.65;99518.06;5059902;28;45262;-72
2023/03/31 07:29:45;;;;;;;;;8.33;4.00;;;;;14.03;57.59;99412.06;5041712;28;48378;-71
2023/03/31 07:32:10;;;;;;;;;5.00;2.67;;;;;14.69;58.00;99516.63;5059552;28;45435;-71
2023/03/31 07:34:35;;;;;;;;;6.33;3.00;;;;;14.70;57.61;99523.63;5056814;28;45480;-71
2023/03/31 07:37:01;;;;;;;;;9.67;7.00;;;;;14.07;57.38;99407.16;5069287;28;45322;-72
2023/03/31 07:39:26;;;;;;;;;7.67;4.33;;;;;15.00;57.37;99531.34;5058744;28;46597;-70
2023/03/31 07:41:51;;;;;;;;;10.00;3.00;;;;;15.13;56.90;99526.00;5040844;28;45391;-72
2023/03/31 07:44:17;;;;;;;;;20.67;16.33;;;;;15.33;55.92;99493.91;5072077;28;45529;-71
2023/03/31 07:46:43;;;;;;;;;8.67;7.67;;;;;15.69;55.19;99536.41;5079681;28;45596;-73
2023/03/31 07:49:09;;;;;;;;;3.33;3.00;;;;;15.73;54.88;99505.47;5061275;28;48501;-73
2023/03/31 07:51:34;;;;;;;;;6.00;5.00;;;;;15.66;54.64;99496.63;5079352;28;45319;-70
2023/03/31 07:54:00;;;;;;;;;8.00;3.33;;;;;15.99;54.23;99542.13;5069126;28;45474;-72
2023/03/31 07:56:25;;;;;;;;;5.67;5.67;;;;;16.02;54.29;99542.56;5058852;28;45550;-73
2023/03/31 07:58:51;;;;;;;;;6.67;2.33;;;;;15.85;54.45;99536.00;5058692;28;45858;-73
2023/03/31 08:01:20;;;;;;;;;2.33;2.33;;;;;15.79;55.23;99548.34;5060991;28;45237;-72
2023/03/31 08:03:47;;;;;;;;;3.67;3.00;;;;;15.33;55.02;99457.25;5061343;28;45284;-72
2023/03/31 08:06:21;;;;;;;;;2.00;2.00;;;;;15.64;55.17;99506.75;5061653;28;45483;-73
2023/03/31 08:08:51;;;;;;;;;6.33;2.67;;;;;15.92;55.20;99525.25;5058732;28;45328;-71
2023/03/31 08:11:17;;;;;;;;;7.67;5.00;;;;;15.86;55.37;99532.28;5058509;28;45320;-73
2023/03/31 08:13:42;;;;;;;;;9.67;6.00;;;;;13.90;55.74;99247.19;5056550;28;45427;-71
2023/03/31 08:16:08;;;;;;;;;16.00;8.00;;;;;15.71;56.03;99529.81;5039324;28;45346;-72
2023/03/31 08:18:33;;;;;;;;;6.67;3.33;;;;;15.17;56.23;99471.03;5048535;28;45453;-71
2023/03/31 08:20:59;;;;;;;;;7.67;5.33;;;;;15.53;56.73;99538.44;5057512;28;45287;-72
2023/03/31 08:23:25;;;;;;;;;8.33;5.00;;;;;14.66;57.01;99398.53;5059159;28;45574;-71
2023/03/31 08:25:50;;;;;;;;;7.67;4.00;;;;;15.36;57.21;99558.59;5058725;28;45364;-71
2023/03/31 08:28:18;;;;;;;;;10.33;7.33;;;;;15.36;57.67;99552.41;5039911;28;46195;-72
2023/03/31 08:30:45;;;;;;;;;2.67;2.67;;;;;14.72;57.49;99433.31;5040459;28;45472;-73
2023/03/31 08:33:11;;;;;;;;;7.00;4.33;;;;;15.13;56.99;99477.84;5057616;28;45399;-72
2023/03/31 08:35:37;;;;;;;;;8.00;5.67;;;;;15.70;56.41;99525.47;5074550;28;45541;-71
2023/03/31 08:38:03;;;;;;;;;7.00;5.67;;;;;15.14;56.08;99442.00;5057516;28;45459;-72
2023/03/31 08:40:31;;;;;;;;;5.67;4.67;;;;;14.88;55.71;99383.94;5041842;28;45423;-71
2023/03/31 08:43:05;;;;;;;;;9.00;4.00;;;;;15.42;55.71;99445.31;5059241;28;45333;-73
2023/03/31 08:45:34;;;;;;;;;6.00;3.00;;;;;15.93;55.17;99517.00;5059115;28;45420;-71
2023/03/31 08:48:06;;;;;;;;;6.00;3.67;;;;;16.15;54.74;99527.47;5040512;28;45945;-73
2023/03/31 08:50:35;;;;;;;;;7.00;3.33;;;;;16.20;54.67;99533.03;5078056;28;45502;-71
2023/03/31 08:53:07;;;;;;;;;7.67;6.00;;;;;15.80;54.09;99441.97;5054300;28;45527;-72
2023/03/31 08:55:49;;;;;;;;;23.00;10.00;;;;;16.40;53.14;99506.97;5058751;28;45489;-71
2023/03/31 08:58:33;;;;;;;;;10.33;3.33;;;;;16.37;52.10;99502.03;5040800;28;45792;-72
2023/03/31 09:01:36;;;;;;;;;10.00;8.67;;;;;16.41;52.03;99535.44;5058422;28;45341;-72
2023/03/31 09:04:35;;;;;;;;;8.00;6.67;;;;;16.60;51.72;99521.13;5039853;28;45490;-72
2023/03/31 09:07:14;;;;;;;;;4.67;2.00;;;;;16.30;51.05;99485.16;5058161;28;45404;-72
2023/03/31 09:10:10;;;;;;;;;2.67;2.67;;;;;16.33;51.28;99512.38;5058494;28;46229;-74
2023/03/31 09:12:56;;;;;;;;;7.67;5.00;;;;;16.31;51.36;99509.09;5042981;28;45407;-72
2023/03/31 09:15:36;;;;;;;;;6.25;2.00;;;;;15.96;51.90;99484.41;5038752;28;45547;-73
2023/03/31 09:18:16;;;;;;;;;9.67;5.00;;;;;16.15;52.07;99503.34;5037659;28;45592;-73
2023/03/31 09:20:46;;;;;;;;;5.67;3.00;;;;;16.24;51.52;99523.56;5055865;28;45730;-72
2023/03/31 09:23:50;;;;;;;;;3.00;2.00;;;;;16.33;51.25;99517.72;5057742;28;45460;-73
2023/03/31 09:26:32;;;;;;;;;4.00;3.67;;;;;15.92;51.47;99472.47;5057763;28;45582;-72
2023/03/31 09:29:02;;;;;;;;;2.00;2.00;;;;;16.11;51.79;99519.84;5058099;28;45309;-72
2023/03/31 09:31:28;;;;;;;;;8.67;4.33;;;;;16.15;51.93;99527.47;5057367;28;45561;-72
2023/03/31 09:34:00;;;;;;;;;6.25;4.75;;;;;14.89;52.87;99351.63;5057481;28;45475;-72
2023/03/31 09:36:26;;;;;;;;;4.00;2.00;;;;;15.78;53.23;99530.63;5039506;28;45491;-71
2023/03/31 09:38:51;;;;;;;;;5.00;4.00;;;;;15.79;53.12;99520.72;5057728;28;45389;-72
2023/03/31 09:41:18;;;;;;;;;5.67;4.33;;;;;15.34;52.84;99440.16;5039134;28;46882;-71
2023/03/31 09:43:45;;;;;;;;;3.33;3.00;;;;;15.46;52.53;99417.06;5054995;28;45404;-74
2023/03/31 09:46:34;;;;;;;;;7.00;3.33;;;;;16.33;51.17;99507.00;5040656;28;45349;-72
2023/03/31 09:49:27;;;;;;;;;5.67;2.00;;;;;16.67;49.89;99515.78;5028137;28;45428;-74
2023/03/31 09:52:03;;;;;;;;;3.67;1.00;;;;;16.89;48.92;99517.13;5040092;28;46022;-72
2023/03/31 09:54:40;;;;;;;;;3.50;3.50;;;;;16.99;48.40;99530.88;5042300;28;45467;-73
2023/03/31 09:57:30;;;;;;;;;8.33;4.00;;;;;17.12;47.88;99508.50;5055601;28;45482;-73
2023/03/31 10:00:15;;;;;;;;;5.33;3.00;;;;;17.09;48.51;99516.19;5058109;28;45443;-72
2023/03/31 10:02:52;;;;;;;;;4.25;2.00;;;;;16.89;48.28;99473.34;5057937;28;45637;-72
2023/03/31 10:05:28;;;;;;;;;5.25;3.25;;;;;17.37;47.89;99507.72;5057995;28;45259;-72
2023/03/31 10:08:13;;;;;;;;;9.00;5.67;;;;;17.18;47.72;99456.59;5057894;28;45310;-73
2023/03/31 10:10:54;;;;;;;;;7.67;6.00;;;;;17.58;47.63;99516.22;5057393;28;45475;-72
2023/03/31 10:13:33;;;;;;;;;2.00;2.00;;;;;17.58;47.01;99485.84;5039099;28;47327;-72
2023/03/31 10:16:07;;;;;;;;;4.00;2.00;;;;;17.52;46.98;99486.72;5057036;28;45322;-72
2023/03/31 10:18:41;;;;;;;;;4.50;2.00;;;;;17.40;47.53;99508.09;5057415;28;45424;-72
2023/03/31 10:21:21;;;;;;;;;4.00;2.00;;;;;17.25;47.91;99503.06;5057909;28;45423;-72
2023/03/31 10:23:47;;;;;;;;;5.00;3.67;;;;;16.57;47.99;99395.47;5039842;28;48886;-72
2023/03/31 10:26:19;;;;;;;;;2.00;2.00;;;;;17.23;47.89;99523.94;5058619;28;45412;-72
2023/03/31 10:28:48;;;;;;;;;5.33;5.33;;;;;16.94;48.06;99527.22;5058885;28;45395;-71
2023/03/31 10:31:14;;;;;;;;;3.00;1.33;;;;;16.98;47.70;99515.00;5058752;28;45542;-72
2023/03/31 10:33:45;;;;;;;;;2.00;1.00;;;;;16.91;47.20;99487.38;5056793;28;46786;-72
2023/03/31 10:36:22;;;;;;;;;6.00;2.25;;;;;17.16;46.85;99504.34;5056928;28;45253;-73
2023/03/31 10:38:50;;;;;;;;;0.00;0.00;;;;;17.17;46.61;99491.75;5056687;28;45332;-71
2023/03/31 10:41:22;;;;;;;;;1.00;1.00;;;;;16.85;46.60;99446.13;5056845;28;45457;-72
2023/03/31 10:43:51;;;;;;;;;1.67;1.67;;;;;17.30;46.29;99530.09;5056421;28;46510;-75
2023/03/31 10:46:17;;;;;;;;;4.25;1.00;;;;;17.32;46.28;99503.00;5056420;28;45389;-73
2023/03/31 10:48:43;;;;;;;;;4.33;2.00;;;;;16.81;46.25;99438.69;5038148;28;45462;-71
2023/03/31 10:51:18;;;;;;;;;4.33;1.67;;;;;17.20;45.62;99491.31;5056232;28;45447;-72
2023/03/31 10:53:51;;;;;;;;;2.00;1.00;;;;;16.39;46.32;99344.38;5055986;28;46143;-72
2023/03/31 10:56:30;;;;;;;;;3.00;3.00;;;;;17.27;46.40;99505.53;5056320;28;45549;-72
2023/03/31 10:59:15;;;;;;;;;1.00;1.00;;;;;17.37;46.43;99495.09;5038765;28;45492;-73
2023/03/31 11:02:11;;;;;;;;;2.00;0.00;;;;;17.29;46.42;99503.44;5054922;28;45475;-71
2023/03/31 11:05:06;;;;;;;;;1.67;1.67;;;;;17.35;46.73;99491.81;5039563;28;46293;-73
2023/03/31 11:07:57;;;;;;;;;2.50;2.25;;;;;17.36;46.97;99500.69;5040103;28;45199;-72
2023/03/31 11:10:48;;;;;;;;;3.00;1.50;;;;;17.32;46.99;99513.75;5040532;28;45409;-72
2023/03/31 11:13:35;;;;;;;;;3.00;2.33;;;;;17.32;46.79;99494.94;5040025;28;45460;-73
2023/03/31 11:16:19;;;;;;;;;1.50;1.50;;;;;17.38;46.99;99523.63;5021106;28;47141;-72
2023/03/31 11:18:44;;;;;;;;;10.33;8.33;;;;;17.18;46.53;99456.59;5039274;28;45362;-72
2023/03/31 11:21:15;;;;;;;;;2.25;2.00;;;;;17.06;47.04;99501.34;5039573;28;45371;-71
2023/03/31 11:23:57;;;;;;;;;3.75;2.00;;;;;16.48;46.58;99404.81;5039605;28;45373;-71
2023/03/31 11:26:51;;;;;;;;;2.75;0.00;;;;;17.09;47.18;99519.69;5040211;28;45735;-72
2023/03/31 11:29:25;;;;;;;;;3.67;2.00;;;;;16.98;46.82;99497.03;5048358;28;45235;-72
2023/03/31 11:32:15;;;;;;;;;1.00;1.00;;;;;17.10;46.51;99497.16;5049704;28;45517;-72
2023/03/31 11:34:58;;;;;;;;;0.50;0.00;;;;;17.24;46.38;99497.91;5044433;28;45518;-71
2023/03/31 11:37:53;;;;;;;;;1.67;1.67;;;;;17.32;45.98;99490.41;5059235;28;45695;-72
2023/03/31 11:40:27;;;;;;;;;1.00;1.00;;;;;17.37;45.85;99480.84;4953826;28;45578;-71
2023/03/31 11:43:01;;;;;;;;;2.00;2.00;;;;;17.30;46.00;99475.53;5058765;28;45278;-72
2023/03/31 11:46:11;;;;;;;;;1.00;1.00;;;;;17.27;46.15;99465.25;5054255;28;45530;-71
2023/03/31 11:48:50;;;;;;;;;2.33;2.33;;;;;16.25;46.28;99279.31;5033600;28;46594;-70
2023/03/31 11:51:39;;;;;;;;;2.33;2.33;;;;;16.31;46.17;99293.69;5076555;28;45500;-70
2023/03/31 11:54:10;;;;;;;;;5.33;3.33;;;;;16.71;45.14;99407.78;5017700;28;45279;-70
2023/03/31 11:56:40;;;;;;;;;3.67;2.67;;;;;17.24;45.81;99461.13;5045470;28;45576;-70
2023/03/31 11:59:07;;;;;;;;;1.00;0.00;;;;;17.29;45.16;99474.72;5039124;28;45706;-72
2023/03/31 12:01:54;;;;;;;;;3.33;2.33;;;;;17.43;44.82;99461.19;5061512;28;45532;-74
2023/03/31 12:04:32;;;;;;;;;16.33;11.33;;;;;17.68;44.34;99443.22;5080190;28;45478;-71
2023/03/31 12:07:05;;;;;;;;;2.75;1.00;;;;;17.64;44.04;99444.66;5059075;28;45498;-72
2023/03/31 12:09:42;;;;;;;;;0.50;0.50;;;;;17.84;43.83;99456.09;5047104;28;45814;-72
2023/03/31 12:12:17;;;;;;;;;1.00;1.00;;;;;17.89;44.06;99474.22;5043178;28;45553;-72
2023/03/31 12:14:54;;;;;;;;;2.25;1.00;;;;;17.93;44.57;99467.34;5045427;28;45607;-73